Time;durP1;ratioP1;P1;durP2;ratioP2;P2;SDS_P1;SDS_P2;PMS_P1;PMS_P2;Temp;Humidity;BMP_temperature;BMP_pressure;BME280_temperature;BME280_humidity;BME280_pressure;Samples;Min_cycle;Max_cycle;Signal;HPM_P1;HPM_P2
2022/02/17 00:01:23;;;;;;;;;;;;;;;;;;5087759;28;20279;-55
2022/02/17 00:03:49;;;;;;;;;;;;;;;;;;5084938;28;19908;-56
2022/02/17 00:06:16;;;;;;;;;;;;;;;;;;5066751;28;20517;-53
2022/02/17 00:08:44;;;;;;;;;;;;;;;;;;5078554;28;20020;-59
2022/02/17 00:11:10;;;;;;;;;;;;;;;;;;5067863;28;19914;-59
2022/02/17 00:13:37;;;;;;;;;;;;;;;;;;5072080;28;19909;-57
2022/02/17 00:16:03;;;;;;;;;;;;;;;;;;5083933;28;19939;-58
2022/02/17 00:18:30;;;;;;;;;;;;;;;;;;5089296;28;19919;-59
2022/02/17 00:20:57;;;;;;;;;;;;;;;;;;5073460;28;19908;-58
2022/02/17 00:23:23;;;;;;;;;;;;;;;;;;5077689;28;19912;-60
2022/02/17 00:25:49;;;;;;;;;;;;;;;;;;5089054;28;19908;-57
2022/02/17 00:28:19;;;;;;;;;;;;;;;;;;5087595;28;19997;-57
2022/02/17 00:30:45;;;;;;;;;;;;;;;;;;5083559;28;19915;-56
2022/02/17 00:33:12;;;;;;;;;;;;;;;;;;5078942;28;19948;-58
2022/02/17 00:35:38;;;;;;;;;;;;;;;;;;5091222;28;19920;-56
2022/02/17 00:38:05;;;;;;;;;;;;;;;;;;5086113;28;19908;-59
2022/02/17 00:40:32;;;;;;;;;;;;;;;;;;5086049;28;19953;-57
2022/02/17 00:42:58;;;;;;;;;;;;;;;;;;5078298;28;20339;-58
2022/02/17 00:45:25;;;;;;;;;;;;;;;;;;5082599;28;20263;-56
2022/02/17 00:47:51;;;;;;;;;;;;;;;;;;5084125;28;19920;-57
2022/02/17 00:50:18;;;;;;;;;;;;;;;;;;5087842;28;19909;-58
2022/02/17 00:52:45;;;;;;;;;;;;;;;;;;5078512;28;20287;-58
2022/02/17 00:55:11;;;;;;;;;;;;;;;;;;5088774;28;19962;-59
2022/02/17 00:57:38;;;;;;;;;;;;;;;;;;5081854;28;19998;-56
2022/02/17 01:00:04;;;;;;;;;;;;;;;;;;5082773;28;20035;-55
2022/02/17 01:02:31;;;;;;;;;;;;;;;;;;5079315;28;20424;-60
2022/02/17 01:04:57;;;;;;;;;;;;;;;;;;5091046;28;20363;-57
2022/02/17 01:07:24;;;;;;;;;;;;;;;;;;5082237;28;19952;-58
2022/02/17 01:09:50;;;;;;;;;;;;;;;;;;5069535;28;19908;-59
2022/02/17 01:12:17;;;;;;;;;;;;;;;;;;5081447;28;19995;-56
2022/02/17 01:14:43;;;;;;;;;;;;;;;;;;5082801;28;20007;-57
2022/02/17 01:17:10;;;;;;;;;;;;;;;;;;5086327;28;19967;-61
2022/02/17 01:19:36;;;;;;;;;;;;;;;;;;5091019;28;19909;-61
2022/02/17 01:22:03;;;;;;;;;;;;;;;;;;5079220;28;19923;-61
2022/02/17 01:24:29;;;;;;;;;;;;;;;;;;5084238;28;19934;-57
2022/02/17 01:26:56;;;;;;;;;;;;;;;;;;5087989;28;19924;-56
2022/02/17 01:29:25;;;;;;;;;;;;;;;;;;5085087;28;19908;-56
2022/02/17 01:31:52;;;;;;;;;;;;;;;;;;5081621;28;19915;-53
2022/02/17 01:34:18;;;;;;;;;;;;;;;;;;5081436;28;19987;-53
2022/02/17 01:36:45;;;;;;;;;;;;;;;;;;5083600;28;19908;-55
2022/02/17 01:39:11;;;;;;;;;;;;;;;;;;5087928;28;19938;-56
2022/02/17 01:41:37;;;;;;;;;;;;;;;;;;5088505;28;19977;-54
2022/02/17 01:44:04;;;;;;;;;;;;;;;;;;5076890;28;19924;-54
2022/02/17 01:46:31;;;;;;;;;;;;;;;;;;5067583;28;19908;-52
2022/02/17 01:48:57;;;;;;;;;;;;;;;;;;5089883;28;20378;-53
2022/02/17 01:51:24;;;;;;;;;;;;;;;;;;5084030;28;19916;-57
2022/02/17 01:53:50;;;;;;;;;;;;;;;;;;5079711;28;19994;-56
2022/02/17 01:56:17;;;;;;;;;;;;;;;;;;5086370;28;19916;-54
2022/02/17 01:58:43;;;;;;;;;;;;;;;;;;5085653;28;19908;-52
2022/02/17 02:01:10;;;;;;;;;;;;;;;;;;5086546;28;19908;-56
2022/02/17 02:03:36;;;;;;;;;;;;;;;;;;5079642;28;19908;-58
2022/02/17 02:06:03;;;;;;;;;;;;;;;;;;5086008;28;20015;-54
2022/02/17 02:08:29;;;;;;;;;;;;;;;;;;5086956;28;19923;-59
2022/02/17 02:10:56;;;;;;;;;;;;;;;;;;5089374;28;19942;-52
2022/02/17 02:13:22;;;;;;;;;;;;;;;;;;5074264;28;20324;-60
2022/02/17 02:15:49;;;;;;;;;;;;;;;;;;5082372;28;19920;-62
2022/02/17 02:18:16;;;;;;;;;;;;;;;;;;5085713;28;20262;-59
2022/02/17 02:20:42;;;;;;;;;;;;;;;;;;5083369;28;19909;-60
2022/02/17 02:23:08;;;;;;;;;;;;;;;;;;5081829;28;19916;-62
2022/02/17 02:25:35;;;;;;;;;;;;;;;;;;5087846;28;19913;-55
2022/02/17 02:28:01;;;;;;;;;;;;;;;;;;5081642;28;19915;-57
2022/02/17 02:30:28;;;;;;;;;;;;;;;;;;5082104;28;20323;-55
2022/02/17 02:32:54;;;;;;;;;;;;;;;;;;5078179;28;19912;-54
2022/02/17 02:35:21;;;;;;;;;;;;;;;;;;5086173;28;19917;-56
2022/02/17 02:37:47;;;;;;;;;;;;;;;;;;5086267;28;19916;-57
2022/02/17 02:40:14;;;;;;;;;;;;;;;;;;5063087;28;20346;-60
2022/02/17 02:42:40;;;;;;;;;;;;;;;;;;5083780;28;19915;-54
2022/02/17 02:45:07;;;;;;;;;;;;;;;;;;5068220;28;20002;-55
2022/02/17 02:47:33;;;;;;;;;;;;;;;;;;5087522;28;19912;-54
2022/02/17 02:50:00;;;;;;;;;;;;;;;;;;5084206;28;19908;-56
2022/02/17 02:52:26;;;;;;;;;;;;;;;;;;5081168;28;19912;-57
2022/02/17 02:54:53;;;;;;;;;;;;;;;;;;5086139;28;19927;-59
2022/02/17 02:57:19;;;;;;;;;;;;;;;;;;5085264;28;19912;-56
2022/02/17 02:59:46;;;;;;;;;;;;;;;;;;5086974;28;19928;-59
2022/02/17 03:02:12;;;;;;;;;;;;;;;;;;5082204;28;20395;-56
2022/02/17 03:04:39;;;;;;;;;;;;;;;;;;5082418;28;20264;-55
2022/02/17 03:07:05;;;;;;;;;;;;;;;;;;5086825;28;19908;-59
2022/02/17 03:09:32;;;;;;;;;;;;;;;;;;5066825;28;19916;-57
2022/02/17 03:11:58;;;;;;;;;;;;;;;;;;5082491;28;19964;-59
2022/02/17 03:14:25;;;;;;;;;;;;;;;;;;5074873;28;20461;-56
2022/02/17 03:16:51;;;;;;;;;;;;;;;;;;5072781;28;19927;-58
2022/02/17 03:19:18;;;;;;;;;;;;;;;;;;5075138;28;20003;-52
2022/02/17 03:21:44;;;;;;;;;;;;;;;;;;5070091;28;20323;-55
2022/02/17 03:24:11;;;;;;;;;;;;;;;;;;5065351;28;19908;-55
2022/02/17 03:26:37;;;;;;;;;;;;;;;;;;5069698;28;20006;-46
2022/02/17 03:29:03;;;;;;;;;;;;;;;;;;5073996;28;20004;-56
2022/02/17 03:31:30;;;;;;;;;;;;;;;;;;5085891;28;20252;-58
2022/02/17 03:33:57;;;;;;;;;;;;;;;;;;5074904;28;19938;-52
2022/02/17 03:36:23;;;;;;;;;;;;;;;;;;5071419;28;20019;-54
2022/02/17 03:38:50;;;;;;;;;;;;;;;;;;5054858;28;19908;-58
2022/02/17 03:41:16;;;;;;;;;;;;;;;;;;5075039;28;19908;-49
2022/02/17 03:43:43;;;;;;;;;;;;;;;;;;5067759;28;19947;-51
2022/02/17 03:46:09;;;;;;;;;;;;;;;;;;5073038;28;19916;-46
2022/02/17 03:48:36;;;;;;;;;;;;;;;;;;5078223;28;19908;-51
2022/02/17 03:51:03;;;;;;;;;;;;;;;;;;5074324;28;19915;-53
2022/02/17 03:53:29;;;;;;;;;;;;;;;;;;5069754;28;19927;-54
2022/02/17 03:55:56;;;;;;;;;;;;;;;;;;5054346;28;20016;-55
2022/02/17 04:01:27;;;;;;;;;;;;;;;;;;5010473;28;20279;-50
2022/02/17 04:03:56;;;;;;;;;;;;;;;;;;5008305;28;20730;-48
2022/02/17 04:06:23;;;;;;;;;;;;;;;;;;5036117;28;19924;-51
2022/02/17 04:08:49;;;;;;;;;;;;;;;;;;5069450;28;20388;-52
2022/02/17 04:11:20;;;;;;;;;;;;;;;;;;5074993;28;20286;-54
2022/02/17 04:13:46;;;;;;;;;;;;;;;;;;5070529;28;19908;-50
2022/02/17 04:16:15;;;;;;;;;;;;;;;;;;5073420;28;19955;-49
2022/02/17 04:18:42;;;;;;;;;;;;;;;;;;5086326;28;19908;-51
2022/02/17 04:21:08;;;;;;;;;;;;;;;;;;5087597;28;19911;-53
2022/02/17 04:23:35;;;;;;;;;;;;;;;;;;5088630;28;19924;-51
2022/02/17 04:26:01;;;;;;;;;;;;;;;;;;5091147;28;19934;-54
2022/02/17 04:28:28;;;;;;;;;;;;;;;;;;5093197;28;20302;-53
2022/02/17 04:30:54;;;;;;;;;;;;;;;;;;5091970;28;19995;-53
2022/02/17 04:33:21;;;;;;;;;;;;;;;;;;5090486;28;19916;-48
2022/02/17 04:35:47;;;;;;;;;;;;;;;;;;5093061;28;19977;-57
2022/02/17 04:38:14;;;;;;;;;;;;;;;;;;5091679;28;19908;-52
2022/02/17 04:43:25;;;;;;;;;;;;;;;;;;5088783;28;19919;-54
2022/02/17 04:45:51;;;;;;;;;;;;;;;;;;5092299;28;19915;-53
2022/02/17 04:48:18;;;;;;;;;;;;;;;;;;5093050;28;20017;-55
2022/02/17 04:50:44;;;;;;;;;;;;;;;;;;5092812;28;19908;-54
2022/02/17 04:53:11;;;;;;;;;;;;;;;;;;5089998;28;19909;-55
2022/02/17 04:55:37;;;;;;;;;;;;;;;;;;5092051;28;19917;-51
2022/02/17 04:58:04;;;;;;;;;;;;;;;;;;5093029;28;20402;-58
2022/02/17 05:00:33;;;;;;;;;;;;;;;;;;5092496;28;19908;-47
2022/02/17 05:03:00;;;;;;;;;;;;;;;;;;5088699;28;19969;-52
2022/02/17 05:05:26;;;;;;;;;;;;;;;;;;5092376;28;20013;-51
2022/02/17 05:07:53;;;;;;;;;;;;;;;;;;5092771;28;19908;-54
2022/02/17 05:10:19;;;;;;;;;;;;;;;;;;5092673;28;19919;-56
2022/02/17 05:12:46;;;;;;;;;;;;;;;;;;5088281;28;19927;-59
2022/02/17 05:15:13;;;;;;;;;;;;;;;;;;5092324;28;19967;-56
2022/02/17 05:17:40;;;;;;;;;;;;;;;;;;5092602;28;19921;-57
2022/02/17 05:20:06;;;;;;;;;;;;;;;;;;5092569;28;19908;-59
2022/02/17 05:22:33;;;;;;;;;;;;;;;;;;5086752;28;19916;-57
2022/02/17 05:24:59;;;;;;;;;;;;;;;;;;5092095;28;20286;-60
2022/02/17 05:27:26;;;;;;;;;;;;;;;;;;5092486;28;19943;-61
2022/02/17 05:29:52;;;;;;;;;;;;;;;;;;5092098;28;19908;-51
2022/02/17 05:32:19;;;;;;;;;;;;;;;;;;5090262;28;19927;-51
2022/02/17 05:34:45;;;;;;;;;;;;;;;;;;5090807;28;19916;-54
2022/02/17 05:37:12;;;;;;;;;;;;;;;;;;5092274;28;20373;-51
2022/02/17 05:39:38;;;;;;;;;;;;;;;;;;5091557;28;19973;-52
2022/02/17 05:42:05;;;;;;;;;;;;;;;;;;5092489;28;20319;-48
2022/02/17 05:44:31;;;;;;;;;;;;;;;;;;5087926;28;19908;-53
2022/02/17 05:46:58;;;;;;;;;;;;;;;;;;5092197;28;20405;-51
2022/02/17 05:49:24;;;;;;;;;;;;;;;;;;5091179;28;19913;-51
2022/02/17 05:51:51;;;;;;;;;;;;;;;;;;5091783;28;19971;-55
2022/02/17 05:54:17;;;;;;;;;;;;;;;;;;5087176;28;19909;-55
2022/02/17 05:56:47;;;;;;;;;;;;;;;;;;5090332;28;19943;-53
2022/02/17 05:59:13;;;;;;;;;;;;;;;;;;5091302;28;20369;-54
2022/02/17 06:01:40;;;;;;;;;;;;;;;;;;5091285;28;19909;-54
2022/02/17 06:04:06;;;;;;;;;;;;;;;;;;5087515;28;19954;-49
2022/02/17 06:06:36;;;;;;;;;;;;;;;;;;5089914;28;19915;-53
2022/02/17 06:09:02;;;;;;;;;;;;;;;;;;5090369;28;20222;-54
2022/02/17 06:11:29;;;;;;;;;;;;;;;;;;5090614;28;19912;-54
2022/02/17 06:13:55;;;;;;;;;;;;;;;;;;5085986;28;19912;-53
2022/02/17 06:16:22;;;;;;;;;;;;;;;;;;5089747;28;19933;-51
2022/02/17 06:18:48;;;;;;;;;;;;;;;;;;5083622;28;20533;-59
2022/02/17 06:21:15;;;;;;;;;;;;;;;;;;5086680;28;19946;-50
2022/02/17 06:23:41;;;;;;;;;;;;;;;;;;5077937;28;19962;-53
2022/02/17 06:26:08;;;;;;;;;;;;;;;;;;5084565;28;19962;-54
2022/02/17 06:28:37;;;;;;;;;;;;;;;;;;5069135;28;19919;-56
2022/02/17 06:31:04;;;;;;;;;;;;;;;;;;5086085;28;19928;-56
2022/02/17 06:33:31;;;;;;;;;;;;;;;;;;5077909;28;20041;-57
2022/02/17 06:35:57;;;;;;;;;;;;;;;;;;5084532;28;19924;-55
2022/02/17 06:38:26;;;;;;;;;;;;;;;;;;5086403;28;19964;-54
2022/02/17 06:40:52;;;;;;;;;;;;;;;;;;5082971;28;19915;-55
2022/02/17 06:43:19;;;;;;;;;;;;;;;;;;5078449;28;19913;-51
2022/02/17 06:45:46;;;;;;;;;;;;;;;;;;5089226;28;19916;-51
2022/02/17 06:48:12;;;;;;;;;;;;;;;;;;5077528;28;19916;-58
2022/02/17 06:50:39;;;;;;;;;;;;;;;;;;5063901;28;19916;-56
2022/02/17 06:53:06;;;;;;;;;;;;;;;;;;5035956;28;20325;-51
2022/02/17 06:55:35;;;;;;;;;;;;;;;;;;5053231;28;20011;-55
2022/02/17 06:58:02;;;;;;;;;;;;;;;;;;5053152;28;19909;-57
2022/02/17 07:00:29;;;;;;;;;;;;;;;;;;5053282;28;20252;-59
2022/02/17 07:02:55;;;;;;;;;;;;;;;;;;5053370;28;19917;-58
2022/02/17 07:05:22;;;;;;;;;;;;;;;;;;5052872;28;19916;-55
2022/02/17 07:07:48;;;;;;;;;;;;;;;;;;5053758;28;19909;-55
2022/02/17 07:10:54;;;;;;;;;;;;;;;;;;5052484;28;19919;-60
2022/02/17 07:13:01;;;;;;;;;;;;;;;;;;5053510;28;19987;-57
2022/02/17 07:15:28;;;;;;;;;;;;;;;;;;5052328;28;19917;-59
2022/02/17 07:17:55;;;;;;;;;;;;;;;;;;5071075;28;19924;-57
2022/02/17 07:20:21;;;;;;;;;;;;;;;;;;5072757;28;19912;-59
2022/02/17 07:22:48;;;;;;;;;;;;;;;;;;5073074;28;19908;-55
2022/02/17 07:25:15;;;;;;;;;;;;;;;;;;5073449;28;19952;-59
2022/02/17 07:27:41;;;;;;;;;;;;;;;;;;5073780;28;20371;-58
2022/02/17 07:30:08;;;;;;;;;;;;;;;;;;5073775;28;19915;-61
2022/02/17 07:32:34;;;;;;;;;;;;;;;;;;5071971;28;19919;-58
2022/02/17 07:35:01;;;;;;;;;;;;;;;;;;5073108;28;19926;-55
2022/02/17 07:37:27;;;;;;;;;;;;;;;;;;5073498;28;19915;-59
2022/02/17 07:39:54;;;;;;;;;;;;;;;;;;5072953;28;19970;-58
2022/02/17 07:42:20;;;;;;;;;;;;;;;;;;5073441;28;19913;-58
2022/02/17 07:44:47;;;;;;;;;;;;;;;;;;5072864;28;20393;-54
2022/02/17 07:47:13;;;;;;;;;;;;;;;;;;5072724;28;19908;-54
2022/02/17 07:49:40;;;;;;;;;;;;;;;;;;5070043;28;19909;-56
2022/02/17 07:52:06;;;;;;;;;;;;;;;;;;5071192;28;19932;-68
2022/02/17 07:54:33;;;;;;;;;;;;;;;;;;5072432;28;20337;-64
2022/02/17 07:57:02;;;;;;;;;;;;;;;;;;5072845;28;19999;-62
2022/02/17 07:59:29;;;;;;;;;;;;;;;;;;5076549;28;19913;-63
2022/02/17 08:01:56;;;;;;;;;;;;;;;;;;5075275;28;19908;-63
2022/02/17 08:04:22;;;;;;;;;;;;;;;;;;5075404;28;19909;-60
2022/02/17 08:06:49;;;;;;;;;;;;;;;;;;5075373;28;20168;-64
2022/02/17 08:09:15;;;;;;;;;;;;;;;;;;5076862;28;19970;-59
2022/02/17 08:11:41;;;;;;;;;;;;;;;;;;5075837;28;19955;-64
2022/02/17 08:14:09;;;;;;;;;;;;;;;;;;5075356;28;19909;-61
2022/02/17 08:16:44;;;;;;;;;;;;;;;;;;5073816;28;20012;-58
2022/02/17 08:19:11;;;;;;;;;;;;;;;;;;5076332;28;19905;-60
2022/02/17 08:21:37;;;;;;;;;;;;;;;;;;5076139;28;19995;-56
2022/02/17 08:24:04;;;;;;;;;;;;;;;;;;5076211;28;19995;-63
2022/02/17 08:26:30;;;;;;;;;;;;;;;;;;5074747;28;19908;-61
2022/02/17 08:29:00;;;;;;;;;;;;;;;;;;5076008;28;19951;-62
2022/02/17 08:31:26;;;;;;;;;;;;;;;;;;5076014;28;19908;-60
2022/02/17 08:33:53;;;;;;;;;;;;;;;;;;5076429;28;19912;-62
2022/02/17 08:36:20;;;;;;;;;;;;;;;;;;5075868;28;20378;-65
2022/02/17 08:38:46;;;;;;;;;;;;;;;;;;5075705;28;19908;-60
2022/02/17 08:41:13;;;;;;;;;;;;;;;;;;5075898;28;20314;-60
2022/02/17 08:43:39;;;;;;;;;;;;;;;;;;5076501;28;19917;-62
2022/02/17 08:46:06;;;;;;;;;;;;;;;;;;5076008;28;20007;-62
2022/02/17 08:48:35;;;;;;;;;;;;;;;;;;5075365;28;20252;-64
2022/02/17 08:51:02;;;;;;;;;;;;;;;;;;5075614;28;20025;-63
2022/02/17 08:53:28;;;;;;;;;;;;;;;;;;5075943;28;19908;-60
2022/02/17 08:55:55;;;;;;;;;;;;;;;;;;5074088;28;20432;-59
2022/02/17 08:58:21;;;;;;;;;;;;;;;;;;5075710;28;20332;-62
2022/02/17 09:00:48;;;;;;;;;;;;;;;;;;5075740;28;19970;-61
2022/02/17 09:03:14;;;;;;;;;;;;;;;;;;5075412;28;19908;-62
2022/02/17 09:05:41;;;;;;;;;;;;;;;;;;5074284;28;19909;-62
2022/02/17 09:08:09;;;;;;;;;;;;;;;;;;5075550;28;19909;-70
2022/02/17 09:10:36;;;;;;;;;;;;;;;;;;5072933;28;19909;-67
2022/02/17 09:13:05;;;;;;;;;;;;;;;;;;5075654;28;19912;-68
2022/02/17 09:15:31;;;;;;;;;;;;;;;;;;5075893;28;20323;-71
2022/02/17 09:17:58;;;;;;;;;;;;;;;;;;5059825;28;19920;-69
2022/02/17 09:20:24;;;;;;;;;;;;;;;;;;5056018;28;19909;-67
2022/02/17 09:22:51;;;;;;;;;;;;;;;;;;5037351;28;19916;-51
2022/02/17 09:25:17;;;;;;;;;;;;;;;;;;5055124;28;19931;-56
2022/02/17 09:27:44;;;;;;;;;;;;;;;;;;5063639;28;19947;-49
2022/02/17 09:30:10;;;;;;;;;;;;;;;;;;5087356;28;19908;-49
2022/02/17 09:32:37;;;;;;;;;;;;;;;;;;5080362;28;19908;-48
2022/02/17 09:35:03;;;;;;;;;;;;;;;;;;5084828;28;19931;-49
2022/02/17 09:37:30;;;;;;;;;;;;;;;;;;5081040;28;19912;-48
2022/02/17 09:39:59;;;;;;;;;;;;;;;;;;5084420;28;19908;-55
2022/02/17 09:42:26;;;;;;;;;;;;;;;;;;5057687;28;19986;-49
2022/02/17 09:44:53;;;;;;;;;;;;;;;;;;5085922;28;19908;-53
2022/02/17 09:47:19;;;;;;;;;;;;;;;;;;5082344;28;19912;-52
2022/02/17 09:49:46;;;;;;;;;;;;;;;;;;5079999;28;20431;-50
2022/02/17 09:52:13;;;;;;;;;;;;;;;;;;5079030;28;19951;-51
2022/02/17 09:54:40;;;;;;;;;;;;;;;;;;5071456;28;19921;-52
2022/02/17 09:57:06;;;;;;;;;;;;;;;;;;5069660;28;19999;-53
2022/02/17 09:59:33;;;;;;;;;;;;;;;;;;5084274;28;19909;-53
2022/02/17 10:01:59;;;;;;;;;;;;;;;;;;5068754;28;19912;-50
2022/02/17 10:04:26;;;;;;;;;;;;;;;;;;5087615;28;19963;-52
2022/02/17 10:06:52;;;;;;;;;;;;;;;;;;5085720;28;20434;-51
2022/02/17 10:09:19;;;;;;;;;;;;;;;;;;5083557;28;19916;-53
2022/02/17 10:11:46;;;;;;;;;;;;;;;;;;5060578;28;19962;-55
2022/02/17 10:14:12;;;;;;;;;;;;;;;;;;5086261;28;19995;-49
2022/02/17 10:16:39;;;;;;;;;;;;;;;;;;5086653;28;19931;-51
2022/02/17 10:19:05;;;;;;;;;;;;;;;;;;5089092;28;19923;-51
2022/02/17 10:21:32;;;;;;;;;;;;;;;;;;5077826;28;19937;-55
2022/02/17 10:24:01;;;;;;;;;;;;;;;;;;5085587;28;20324;-53
2022/02/17 10:26:28;;;;;;;;;;;;;;;;;;5085744;28;19908;-54
2022/02/17 10:28:57;;;;;;;;;;;;;;;;;;5085268;28;19908;-47
2022/02/17 10:31:24;;;;;;;;;;;;;;;;;;5084025;28;19909;-45
2022/02/17 10:33:54;;;;;;;;;;;;;;;;;;5084590;28;20318;-47
2022/02/17 10:36:21;;;;;;;;;;;;;;;;;;5084005;28;19927;-46
2022/02/17 10:38:47;;;;;;;;;;;;;;;;;;5090663;28;19914;-53
2022/02/17 10:41:14;;;;;;;;;;;;;;;;;;5094164;28;19908;-55
2022/02/17 10:43:40;;;;;;;;;;;;;;;;;;5094116;28;20340;-56
2022/02/17 10:46:07;;;;;;;;;;;;;;;;;;5094059;28;19914;-55
2022/02/17 10:48:34;;;;;;;;;;;;;;;;;;5088606;28;20399;-53
2022/02/17 10:51:00;;;;;;;;;;;;;;;;;;5080761;28;19923;-47
2022/02/17 10:53:27;;;;;;;;;;;;;;;;;;5086523;28;19908;-51
2022/02/17 10:55:53;;;;;;;;;;;;;;;;;;5083742;28;20355;-51
2022/02/17 10:58:20;;;;;;;;;;;;;;;;;;5084385;28;19923;-55
2022/02/17 11:00:46;;;;;;;;;;;;;;;;;;5087991;28;19958;-57
2022/02/17 11:03:13;;;;;;;;;;;;;;;;;;5083574;28;20038;-50
2022/02/17 11:05:39;;;;;;;;;;;;;;;;;;5082607;28;19912;-52
2022/02/17 11:08:06;;;;;;;;;;;;;;;;;;5087073;28;19908;-47
2022/02/17 11:10:32;;;;;;;;;;;;;;;;;;5083933;28;20477;-55
2022/02/17 11:12:59;;;;;;;;;;;;;;;;;;5078979;28;19912;-54
2022/02/17 11:15:25;;;;;;;;;;;;;;;;;;5087612;28;20285;-53
2022/02/17 11:17:52;;;;;;;;;;;;;;;;;;5084603;28;19937;-55
2022/02/17 11:20:18;;;;;;;;;;;;;;;;;;5085216;28;19908;-53
2022/02/17 11:22:46;;;;;;;;;;;;;;;;;;5080859;28;20005;-53
2022/02/17 11:25:13;;;;;;;;;;;;;;;;;;5079984;28;19962;-57
2022/02/17 11:27:39;;;;;;;;;;;;;;;;;;5078528;28;19927;-59
2022/02/17 11:30:05;;;;;;;;;;;;;;;;;;5084467;28;20309;-51
2022/02/17 11:32:32;;;;;;;;;;;;;;;;;;5086280;28;19908;-54
2022/02/17 11:34:59;;;;;;;;;;;;;;;;;;5080067;28;20390;-57
2022/02/17 11:37:30;;;;;;;;;;;;;;;;;;5087552;28;19947;-50
2022/02/17 11:39:57;;;;;;;;;;;;;;;;;;5065833;28;19908;-57
2022/02/17 11:42:23;;;;;;;;;;;;;;;;;;5085210;28;19908;-55
2022/02/17 11:44:50;;;;;;;;;;;;;;;;;;5056307;28;19915;-52
2022/02/17 11:47:16;;;;;;;;;;;;;;;;;;5066326;28;19975;-57
2022/02/17 11:49:45;;;;;;;;;;;;;;;;;;5065238;28;20007;-51
2022/02/17 11:52:12;;;;;;;;;;;;;;;;;;5084964;28;19915;-51
2022/02/17 11:54:38;;;;;;;;;;;;;;;;;;5082933;28;20478;-50
2022/02/17 11:57:05;;;;;;;;;;;;;;;;;;5083928;28;19934;-52
2022/02/17 11:59:31;;;;;;;;;;;;;;;;;;5077753;28;19919;-52
2022/02/17 12:01:58;;;;;;;;;;;;;;;;;;5087603;28;20292;-55
2022/02/17 12:04:24;;;;;;;;;;;;;;;;;;5083907;28;20370;-51
2022/02/17 12:06:51;;;;;;;;;;;;;;;;;;5083040;28;19915;-58
2022/02/17 12:09:18;;;;;;;;;;;;;;;;;;5084000;28;19916;-52
2022/02/17 12:11:44;;;;;;;;;;;;;;;;;;5083335;28;19915;-46
2022/02/17 12:14:11;;;;;;;;;;;;;;;;;;5086950;28;19924;-51
2022/02/17 12:16:38;;;;;;;;;;;;;;;;;;5080665;28;20016;-49
2022/02/17 12:19:04;;;;;;;;;;;;;;;;;;5070365;28;19912;-49
2022/02/17 12:21:35;;;;;;;;;;;;;;;;;;5065477;28;19913;-50
2022/02/17 12:24:01;;;;;;;;;;;;;;;;;;5070358;28;20034;-53
2022/02/17 12:26:40;;;;;;;;;;;;;;;;;;5072605;28;21372;-51
2022/02/17 12:29:07;;;;;;;;;;;;;;;;;;5073408;28;19908;-49
2022/02/17 12:31:33;;;;;;;;;;;;;;;;;;5067128;28;19916;-53
2022/02/17 12:34:00;;;;;;;;;;;;;;;;;;5069936;28;19909;-50
2022/02/17 12:36:26;;;;;;;;;;;;;;;;;;5078628;28;19924;-54
2022/02/17 12:38:53;;;;;;;;;;;;;;;;;;5082931;28;19912;-60
2022/02/17 12:41:20;;;;;;;;;;;;;;;;;;5065166;28;19913;-53
2022/02/17 12:43:47;;;;;;;;;;;;;;;;;;5075945;28;19999;-51
2022/02/17 12:46:15;;;;;;;;;;;;;;;;;;5075201;28;19908;-54
2022/02/17 12:48:42;;;;;;;;;;;;;;;;;;5072111;28;19908;-53
2022/02/17 12:51:08;;;;;;;;;;;;;;;;;;5075318;28;20533;-55
2022/02/17 12:53:35;;;;;;;;;;;;;;;;;;5074884;28;19908;-52
2022/02/17 12:56:01;;;;;;;;;;;;;;;;;;5073351;28;19923;-59
2022/02/17 12:58:28;;;;;;;;;;;;;;;;;;5077814;28;19916;-50
2022/02/17 13:00:54;;;;;;;;;;;;;;;;;;5073749;28;19960;-59
2022/02/17 13:03:23;;;;;;;;;;;;;;;;;;5075682;28;19909;-58
2022/02/17 13:06:35;;;;;;;;;;;;;;;;;;5077627;28;19912;-51
2022/02/17 13:08:37;;;;;;;;;;;;;;;;;;5066701;28;19983;-54
2022/02/17 13:11:03;;;;;;;;;;;;;;;;;;5072277;28;19936;-51
2022/02/17 13:13:30;;;;;;;;;;;;;;;;;;5073786;28;19955;-53
2022/02/17 13:15:57;;;;;;;;;;;;;;;;;;5073354;28;19939;-56
2022/02/17 13:18:28;;;;;;;;;;;;;;;;;;5088668;28;19920;-54
2022/02/17 13:20:56;;;;;;;;;;;;;;;;;;5082096;28;19923;-50
2022/02/17 13:23:27;;;;;;;;;;;;;;;;;;5084242;28;19916;-52
2022/02/17 13:25:54;;;;;;;;;;;;;;;;;;5089738;28;19916;-53
2022/02/17 13:28:20;;;;;;;;;;;;;;;;;;5089050;28;19912;-57
2022/02/17 13:30:47;;;;;;;;;;;;;;;;;;5081638;28;19998;-51
2022/02/17 13:33:13;;;;;;;;;;;;;;;;;;5090627;28;19915;-46
2022/02/17 13:35:40;;;;;;;;;;;;;;;;;;5089279;28;19916;-55
2022/02/17 13:38:07;;;;;;;;;;;;;;;;;;5088187;28;19931;-58
2022/02/17 13:40:34;;;;;;;;;;;;;;;;;;5082558;28;19961;-57
2022/02/17 13:43:01;;;;;;;;;;;;;;;;;;5088436;28;19908;-53
2022/02/17 13:45:27;;;;;;;;;;;;;;;;;;5086983;28;19935;-51
2022/02/17 13:47:54;;;;;;;;;;;;;;;;;;5088681;28;19908;-54
2022/02/17 13:50:20;;;;;;;;;;;;;;;;;;5083782;28;19939;-58
2022/02/17 13:52:47;;;;;;;;;;;;;;;;;;5088255;28;19908;-58
2022/02/17 13:55:13;;;;;;;;;;;;;;;;;;5063790;28;19913;-62
2022/02/17 13:57:42;;;;;;;;;;;;;;;;;;5068127;28;20337;-52
2022/02/17 14:00:09;;;;;;;;;;;;;;;;;;5082512;28;19962;-56
2022/02/17 14:02:36;;;;;;;;;;;;;;;;;;5088690;28;19920;-61
2022/02/17 14:05:12;;;;;;;;;;;;;;;;;;5085245;28;20313;-53
2022/02/17 14:07:38;;;;;;;;;;;;;;;;;;5087347;28;19908;-57
2022/02/17 14:10:04;;;;;;;;;;;;;;;;;;5082311;28;19908;-57
2022/02/17 14:12:31;;;;;;;;;;;;;;;;;;5084600;28;20362;-57
2022/02/17 14:15:01;;;;;;;;;;;;;;;;;;5086701;28;19953;-54
2022/02/17 14:17:28;;;;;;;;;;;;;;;;;;5089183;28;19951;-48
2022/02/17 14:19:54;;;;;;;;;;;;;;;;;;5085080;28;19909;-49
2022/02/17 14:22:21;;;;;;;;;;;;;;;;;;5083313;28;19921;-50
2022/02/17 14:24:47;;;;;;;;;;;;;;;;;;5080160;28;19969;-50
2022/02/17 14:27:14;;;;;;;;;;;;;;;;;;5083383;28;19916;-57
2022/02/17 14:29:43;;;;;;;;;;;;;;;;;;5079031;28;20274;-50
2022/02/17 14:32:10;;;;;;;;;;;;;;;;;;5061915;28;19955;-55
2022/02/17 14:35:20;;;;;;;;;;;;;;;;;;5083187;28;19908;-50
2022/02/17 14:37:29;;;;;;;;;;;;;;;;;;5066067;28;19917;-57
2022/02/17 14:39:58;;;;;;;;;;;;;;;;;;5083507;28;20258;-54
2022/02/17 14:42:25;;;;;;;;;;;;;;;;;;5064490;28;19966;-52
2022/02/17 14:44:57;;;;;;;;;;;;;;;;;;5082511;28;20322;-52
2022/02/17 14:47:25;;;;;;;;;;;;;;;;;;5083150;28;19908;-62
2022/02/17 14:49:53;;;;;;;;;;;;;;;;;;5085138;28;20358;-54
2022/02/17 14:52:19;;;;;;;;;;;;;;;;;;5079112;28;20354;-50
2022/02/17 14:54:46;;;;;;;;;;;;;;;;;;5088088;28;19931;-50
2022/02/17 14:57:12;;;;;;;;;;;;;;;;;;5087914;28;19908;-52
2022/02/17 14:59:39;;;;;;;;;;;;;;;;;;5086440;28;19923;-49
2022/02/17 15:02:05;;;;;;;;;;;;;;;;;;5077844;28;20355;-53
2022/02/17 15:04:32;;;;;;;;;;;;;;;;;;5086717;28;19908;-52
2022/02/17 15:06:59;;;;;;;;;;;;;;;;;;5086931;28;20363;-55
2022/02/17 15:09:25;;;;;;;;;;;;;;;;;;5085428;28;20371;-51
2022/02/17 15:11:52;;;;;;;;;;;;;;;;;;5077462;28;19912;-57
2022/02/17 15:14:18;;;;;;;;;;;;;;;;;;5088033;28;19960;-52
2022/02/17 15:16:45;;;;;;;;;;;;;;;;;;5083250;28;19920;-53
2022/02/17 15:19:11;;;;;;;;;;;;;;;;;;5081475;28;20358;-55
2022/02/17 15:21:39;;;;;;;;;;;;;;;;;;5082380;28;20354;-56
2022/02/17 15:24:05;;;;;;;;;;;;;;;;;;5088163;28;19973;-51
2022/02/17 15:26:32;;;;;;;;;;;;;;;;;;5083188;28;19915;-57
2022/02/17 15:28:59;;;;;;;;;;;;;;;;;;5086264;28;19916;-50
2022/02/17 15:31:29;;;;;;;;;;;;;;;;;;5081294;28;19994;-47
2022/02/17 15:33:56;;;;;;;;;;;;;;;;;;5084303;28;19953;-54
2022/02/17 15:36:22;;;;;;;;;;;;;;;;;;5084994;28;19916;-55
2022/02/17 15:38:49;;;;;;;;;;;;;;;;;;5088883;28;20346;-54
2022/02/17 15:41:15;;;;;;;;;;;;;;;;;;5076500;28;19908;-49
2022/02/17 15:43:43;;;;;;;;;;;;;;;;;;5076283;28;19954;-54
2022/02/17 15:46:10;;;;;;;;;;;;;;;;;;5070489;28;19966;-50
2022/02/17 15:48:36;;;;;;;;;;;;;;;;;;5074507;28;20309;-49
2022/02/17 15:51:03;;;;;;;;;;;;;;;;;;5074042;28;19915;-55
2022/02/17 15:53:32;;;;;;;;;;;;;;;;;;5085529;28;20351;-48
2022/02/17 15:55:59;;;;;;;;;;;;;;;;;;5083487;28;19964;-57
2022/02/17 15:58:25;;;;;;;;;;;;;;;;;;5085575;28;19916;-55
2022/02/17 16:00:52;;;;;;;;;;;;;;;;;;5080284;28;19995;-53
2022/02/17 16:03:18;;;;;;;;;;;;;;;;;;5076300;28;19954;-52
2022/02/17 16:05:45;;;;;;;;;;;;;;;;;;5085538;28;19962;-58
2022/02/17 16:08:12;;;;;;;;;;;;;;;;;;5088266;28;19912;-50
2022/02/17 16:10:38;;;;;;;;;;;;;;;;;;5072719;28;19908;-51
2022/02/17 16:13:06;;;;;;;;;;;;;;;;;;5084678;28;19950;-47
2022/02/17 16:15:32;;;;;;;;;;;;;;;;;;5087810;28;20234;-56
2022/02/17 16:17:59;;;;;;;;;;;;;;;;;;5088800;28;20027;-56
2022/02/17 16:20:25;;;;;;;;;;;;;;;;;;5088845;28;20282;-54
2022/02/17 16:22:52;;;;;;;;;;;;;;;;;;5093267;28;19919;-54
2022/02/17 16:25:18;;;;;;;;;;;;;;;;;;5093863;28;19908;-50
2022/02/17 16:27:46;;;;;;;;;;;;;;;;;;5093334;28;20065;-52
2022/02/17 16:30:13;;;;;;;;;;;;;;;;;;5089887;28;19965;-57
2022/02/17 16:32:39;;;;;;;;;;;;;;;;;;5093094;28;19912;-49
2022/02/17 16:35:06;;;;;;;;;;;;;;;;;;5093262;28;19920;-55
2022/02/17 16:37:32;;;;;;;;;;;;;;;;;;5092707;28;20014;-52
2022/02/17 16:40:01;;;;;;;;;;;;;;;;;;5091880;28;19977;-50
2022/02/17 16:42:27;;;;;;;;;;;;;;;;;;5091784;28;19908;-50
2022/02/17 16:44:54;;;;;;;;;;;;;;;;;;5092878;28;20015;-57
2022/02/17 16:47:21;;;;;;;;;;;;;;;;;;5095566;28;20017;-58
2022/02/17 16:49:47;;;;;;;;;;;;;;;;;;5096664;28;19915;-57